Time;durP1;ratioP1;P1;durP2;ratioP2;P2;SDS_P1;SDS_P2;PMS_P1;PMS_P2;Temp;Humidity;BMP_temperature;BMP_pressure;BME280_temperature;BME280_humidity;BME280_pressure;Samples;Min_cycle;Max_cycle;Signal;HPM_P1;HPM_P2
2021/08/21 00:02:08;;;;;;;15.65;9.45;;;;;;;;;;4973549;28;20022;-77
2021/08/21 00:04:37;;;;;;;14.93;9.35;;;;;;;;;;4986532;28;20029;-76
2021/08/21 00:07:03;;;;;;;15.60;9.75;;;;;;;;;;4977882;28;20196;-76
2021/08/21 00:09:29;;;;;;;18.38;10.18;;;;;;;;;;4979472;28;20117;-77
2021/08/21 00:11:54;;;;;;;15.23;9.23;;;;;;;;;;4974057;28;20174;-76
2021/08/21 00:14:20;;;;;;;22.23;10.23;;;;;;;;;;4974021;28;20497;-77
2021/08/21 00:16:45;;;;;;;17.45;9.82;;;;;;;;;;5001768;28;20034;-76
2021/08/21 00:19:11;;;;;;;19.55;10.45;;;;;;;;;;4992327;28;20046;-77
2021/08/21 00:21:36;;;;;;;16.52;10.43;;;;;;;;;;4974369;28;20041;-77
2021/08/21 00:24:02;;;;;;;17.92;9.98;;;;;;;;;;4972499;28;20053;-77
2021/08/21 00:26:27;;;;;;;19.42;10.02;;;;;;;;;;4975255;28;20035;-77
2021/08/21 00:28:53;;;;;;;17.27;10.27;;;;;;;;;;4973318;28;20035;-77
2021/08/21 00:31:20;;;;;;;16.63;9.77;;;;;;;;;;4999171;28;20028;-77
2021/08/21 00:33:45;;;;;;;18.90;9.85;;;;;;;;;;4986801;28;20069;-77
2021/08/21 00:36:11;;;;;;;16.70;9.98;;;;;;;;;;4992681;28;20038;-77
2021/08/21 00:38:36;;;;;;;15.43;9.52;;;;;;;;;;5005883;28;20042;-77
2021/08/21 00:41:02;;;;;;;16.05;9.27;;;;;;;;;;4984115;28;20027;-76
2021/08/21 00:43:29;;;;;;;18.10;9.10;;;;;;;;;;4982604;28;20045;-76
2021/08/21 00:45:55;;;;;;;14.48;8.80;;;;;;;;;;4992555;28;20033;-77
2021/08/21 00:48:20;;;;;;;22.38;10.25;;;;;;;;;;4990258;28;20030;-76
2021/08/21 00:50:46;;;;;;;14.30;9.50;;;;;;;;;;4985535;28;20026;-76
2021/08/21 00:53:11;;;;;;;13.60;9.13;;;;;;;;;;4974391;28;20041;-77
2021/08/21 00:55:37;;;;;;;15.13;9.63;;;;;;;;;;4994785;28;20033;-76
2021/08/21 00:58:03;;;;;;;15.02;8.77;;;;;;;;;;4984567;28;20034;-77
2021/08/21 01:00:28;;;;;;;15.68;8.80;;;;;;;;;;4990673;28;20034;-76
2021/08/21 01:02:54;;;;;;;15.60;9.30;;;;;;;;;;4974082;28;20037;-76
2021/08/21 01:05:20;;;;;;;21.08;9.52;;;;;;;;;;4972426;28;20034;-76
2021/08/21 01:07:46;;;;;;;19.58;9.55;;;;;;;;;;4973388;28;20035;-76
2021/08/21 01:10:13;;;;;;;17.27;9.75;;;;;;;;;;4986660;28;20062;-76
2021/08/21 01:12:39;;;;;;;18.92;9.55;;;;;;;;;;4989263;28;20436;-76
2021/08/21 01:15:05;;;;;;;17.65;11.13;;;;;;;;;;4991214;28;20022;-77
2021/08/21 01:17:31;;;;;;;26.33;11.02;;;;;;;;;;4980599;28;20104;-77
2021/08/21 01:19:57;;;;;;;19.40;10.75;;;;;;;;;;4980871;28;20046;-76
2021/08/21 01:22:25;;;;;;;20.30;11.23;;;;;;;;;;4974208;28;20041;-76
2021/08/21 01:24:51;;;;;;;20.65;10.60;;;;;;;;;;4973655;28;20038;-76
2021/08/21 01:27:21;;;;;;;22.70;11.30;;;;;;;;;;4972695;28;20027;-76
2021/08/21 01:29:48;;;;;;;24.98;10.65;;;;;;;;;;4972408;28;20031;-76
2021/08/21 01:32:14;;;;;;;30.98;11.00;;;;;;;;;;4972865;28;20038;-78
2021/08/21 01:34:39;;;;;;;20.83;10.27;;;;;;;;;;4973984;28;20030;-76
2021/08/21 01:37:05;;;;;;;19.88;9.48;;;;;;;;;;5018496;28;20508;-75
2021/08/21 01:39:31;;;;;;;27.67;9.70;;;;;;;;;;4995989;28;20045;-75
2021/08/21 01:41:56;;;;;;;21.20;9.77;;;;;;;;;;4992064;28;20018;-75
2021/08/21 01:44:22;;;;;;;21.10;9.00;;;;;;;;;;4976194;28;20501;-76
2021/08/21 01:46:48;;;;;;;23.70;9.60;;;;;;;;;;4993581;28;20039;-76
2021/08/21 01:49:15;;;;;;;16.98;9.10;;;;;;;;;;5010783;28;20165;-76
2021/08/21 01:51:44;;;;;;;20.08;10.23;;;;;;;;;;4995842;28;20430;-75
2021/08/21 01:54:10;;;;;;;16.95;9.30;;;;;;;;;;4995572;28;20034;-75
2021/08/21 01:56:43;;;;;;;19.05;9.63;;;;;;;;;;4993242;28;20023;-75
2021/08/21 01:59:09;;;;;;;27.55;9.93;;;;;;;;;;4982070;28;20047;-77
2021/08/21 02:01:34;;;;;;;17.20;9.75;;;;;;;;;;4976291;28;20035;-78
2021/08/21 02:04:00;;;;;;;21.70;9.82;;;;;;;;;;4975968;28;20034;-75
2021/08/21 02:06:25;;;;;;;17.73;9.45;;;;;;;;;;4976682;28;20069;-75
2021/08/21 02:08:51;;;;;;;19.25;9.45;;;;;;;;;;4975924;28;20041;-75
2021/08/21 02:11:16;;;;;;;15.55;8.75;;;;;;;;;;4975951;28;20469;-76
2021/08/21 02:13:42;;;;;;;18.92;10.23;;;;;;;;;;4979311;28;20042;-75
2021/08/21 02:16:07;;;;;;;20.77;8.90;;;;;;;;;;4990644;28;20117;-78
2021/08/21 02:18:33;;;;;;;18.67;9.52;;;;;;;;;;4976880;28;20472;-75
2021/08/21 02:20:58;;;;;;;17.15;9.70;;;;;;;;;;4976396;28;20039;-76
2021/08/21 02:23:25;;;;;;;19.13;8.90;;;;;;;;;;4975968;28;20034;-76
2021/08/21 02:25:56;;;;;;;19.67;10.32;;;;;;;;;;4983023;28;20547;-78
2021/08/21 02:28:21;;;;;;;21.15;9.95;;;;;;;;;;4990500;28;20034;-78
2021/08/21 02:30:47;;;;;;;18.77;10.02;;;;;;;;;;4995507;28;20037;-78
2021/08/21 02:33:12;;;;;;;18.77;9.98;;;;;;;;;;4995458;28;20069;-78
2021/08/21 02:35:38;;;;;;;23.45;10.85;;;;;;;;;;4993912;28;20069;-78
2021/08/21 02:38:04;;;;;;;19.35;10.75;;;;;;;;;;4975668;28;20038;-78
2021/08/21 02:40:30;;;;;;;17.70;10.75;;;;;;;;;;4976380;28;20057;-78
2021/08/21 02:42:55;;;;;;;20.08;10.10;;;;;;;;;;4975031;28;20030;-78
2021/08/21 02:45:21;;;;;;;22.88;10.98;;;;;;;;;;4975497;28;20121;-76
2021/08/21 02:47:46;;;;;;;26.38;10.60;;;;;;;;;;4974783;28;20118;-77
2021/08/21 02:50:12;;;;;;;20.85;10.77;;;;;;;;;;4980845;28;20039;-77
2021/08/21 02:52:37;;;;;;;24.75;11.32;;;;;;;;;;4994379;28;20030;-76
2021/08/21 02:55:03;;;;;;;34.90;13.50;;;;;;;;;;4994000;28;20157;-76
2021/08/21 02:57:28;;;;;;;25.77;10.90;;;;;;;;;;4990805;28;20493;-76
2021/08/21 02:59:54;;;;;;;29.85;12.70;;;;;;;;;;4989678;28;20417;-77
2021/08/21 03:02:19;;;;;;;26.50;12.45;;;;;;;;;;4976094;28;20030;-77
2021/08/21 03:04:45;;;;;;;35.60;13.55;;;;;;;;;;4975012;28;20034;-76
2021/08/21 03:07:11;;;;;;;28.10;12.50;;;;;;;;;;4982937;28;20536;-77
2021/08/21 03:09:36;;;;;;;22.33;9.98;;;;;;;;;;4994122;28;20109;-77
2021/08/21 03:12:02;;;;;;;22.42;10.23;;;;;;;;;;4986743;28;20031;-77
2021/08/21 03:14:27;;;;;;;23.92;10.02;;;;;;;;;;4974356;28;20109;-76
2021/08/21 03:16:53;;;;;;;24.00;10.13;;;;;;;;;;4975340;28;20114;-76
2021/08/21 03:19:19;;;;;;;26.90;10.00;;;;;;;;;;4978476;28;20034;-76
2021/08/21 03:21:45;;;;;;;25.73;9.82;;;;;;;;;;4983688;28;20030;-76
2021/08/21 03:24:10;;;;;;;19.60;8.82;;;;;;;;;;4976322;28;20034;-75
2021/08/21 03:26:36;;;;;;;21.83;9.98;;;;;;;;;;4974671;28;20081;-76
2021/08/21 03:29:01;;;;;;;21.17;7.93;;;;;;;;;;4974276;28;20433;-76
2021/08/21 03:31:27;;;;;;;25.08;8.77;;;;;;;;;;4974454;28;20023;-76
2021/08/21 03:33:52;;;;;;;20.52;8.68;;;;;;;;;;4982030;28;20087;-76
2021/08/21 03:36:17;;;;;;;18.10;7.50;;;;;;;;;;4987008;28;20030;-77
2021/08/21 03:38:44;;;;;;;21.02;8.55;;;;;;;;;;4974222;28;20054;-77
2021/08/21 03:41:10;;;;;;;16.23;8.35;;;;;;;;;;4991002;28;20180;-77
2021/08/21 03:43:35;;;;;;;20.40;8.25;;;;;;;;;;4978648;28;20090;-76
2021/08/21 03:46:01;;;;;;;30.52;9.55;;;;;;;;;;4992077;28;20587;-76
2021/08/21 03:48:26;;;;;;;20.23;8.55;;;;;;;;;;4992856;28;20374;-76
2021/08/21 03:50:52;;;;;;;17.88;7.95;;;;;;;;;;4993543;28;20113;-78
2021/08/21 03:53:19;;;;;;;17.50;8.50;;;;;;;;;;4993308;28;20397;-78
2021/08/21 03:55:44;;;;;;;17.55;7.95;;;;;;;;;;4983825;28;20030;-78
2021/08/21 03:58:10;;;;;;;19.10;7.95;;;;;;;;;;4973062;28;20126;-76
2021/08/21 04:00:35;;;;;;;17.15;8.07;;;;;;;;;;4973278;28;20037;-76
2021/08/21 04:03:01;;;;;;;16.42;7.57;;;;;;;;;;4974735;28;20030;-79
2021/08/21 04:05:29;;;;;;;31.70;8.88;;;;;;;;;;4974046;28;20050;-76
2021/08/21 04:07:55;;;;;;;20.13;8.80;;;;;;;;;;4954320;28;20027;-77
2021/08/21 04:10:20;;;;;;;20.95;9.13;;;;;;;;;;4954706;28;20049;-77
2021/08/21 04:12:46;;;;;;;21.65;8.05;;;;;;;;;;4954398;28;20031;-76
2021/08/21 04:15:11;;;;;;;16.00;7.95;;;;;;;;;;4965362;28;20378;-76
2021/08/21 04:17:37;;;;;;;21.13;7.47;;;;;;;;;;4975132;28;20076;-76
2021/08/21 04:20:04;;;;;;;26.17;8.98;;;;;;;;;;4982658;28;20045;-77
2021/08/21 04:22:30;;;;;;;18.23;8.40;;;;;;;;;;4992815;28;20030;-78
2021/08/21 04:24:56;;;;;;;25.02;9.07;;;;;;;;;;4992589;28;20061;-78
2021/08/21 04:27:21;;;;;;;26.92;9.15;;;;;;;;;;4990677;28;20066;-77
2021/08/21 04:29:47;;;;;;;20.65;8.85;;;;;;;;;;4973538;28;20163;-77
2021/08/21 04:32:12;;;;;;;29.08;9.77;;;;;;;;;;4973003;28;20379;-78
2021/08/21 04:34:38;;;;;;;33.90;9.98;;;;;;;;;;4980850;28;20034;-77
2021/08/21 04:37:04;;;;;;;18.02;9.30;;;;;;;;;;4992631;28;20026;-77
2021/08/21 04:39:29;;;;;;;22.40;9.30;;;;;;;;;;4978534;28;20145;-78
2021/08/21 04:41:55;;;;;;;23.52;9.52;;;;;;;;;;4973147;28;20113;-78
2021/08/21 04:44:20;;;;;;;18.70;8.95;;;;;;;;;;4973272;28;20118;-78
2021/08/21 04:46:46;;;;;;;22.50;10.23;;;;;;;;;;4973069;28;20473;-77
2021/08/21 04:49:11;;;;;;;21.45;9.40;;;;;;;;;;4979098;28;20027;-78
2021/08/21 04:51:37;;;;;;;34.95;10.07;;;;;;;;;;4973322;28;20042;-77
2021/08/21 04:54:02;;;;;;;27.63;10.52;;;;;;;;;;4973123;28;20033;-77
2021/08/21 04:56:28;;;;;;;28.40;10.38;;;;;;;;;;4973474;28;20043;-77
2021/08/21 04:58:53;;;;;;;23.60;11.13;;;;;;;;;;4973320;28;20384;-77
2021/08/21 05:01:20;;;;;;;22.42;11.07;;;;;;;;;;4972341;28;20038;-77
2021/08/21 05:03:46;;;;;;;19.60;11.77;;;;;;;;;;4974320;28;20034;-77
2021/08/21 05:06:11;;;;;;;20.60;11.75;;;;;;;;;;4972777;28;20141;-77
2021/08/21 05:08:37;;;;;;;30.30;13.07;;;;;;;;;;4972971;28;20030;-77
2021/08/21 05:11:02;;;;;;;31.65;11.43;;;;;;;;;;4972548;28;20034;-77
2021/08/21 05:13:28;;;;;;;20.38;11.85;;;;;;;;;;4972466;28;20543;-77
2021/08/21 05:15:53;;;;;;;25.00;12.05;;;;;;;;;;4975865;28;20054;-77
2021/08/21 05:18:27;;;;;;;21.63;11.65;;;;;;;;;;4990542;28;20551;-76
2021/08/21 05:20:54;;;;;;;19.20;10.88;;;;;;;;;;4975167;28;20054;-78
2021/08/21 05:23:19;;;;;;;29.00;11.48;;;;;;;;;;4972660;28;20074;-76
2021/08/21 05:25:46;;;;;;;30.85;12.50;;;;;;;;;;4988679;28;20034;-78
2021/08/21 05:28:14;;;;;;;25.20;11.05;;;;;;;;;;4987925;28;20018;-77
2021/08/21 05:30:40;;;;;;;36.03;12.73;;;;;;;;;;4973035;28;20493;-77
2021/08/21 05:33:10;;;;;;;28.60;12.18;;;;;;;;;;4972605;28;20058;-77
2021/08/21 05:35:35;;;;;;;23.88;13.50;;;;;;;;;;4973199;28;20058;-77
2021/08/21 05:38:02;;;;;;;30.15;13.90;;;;;;;;;;4972622;28;20417;-76
2021/08/21 05:40:27;;;;;;;28.20;11.60;;;;;;;;;;4988445;28;20049;-77
2021/08/21 05:42:53;;;;;;;22.92;12.15;;;;;;;;;;4991965;28;20022;-77
2021/08/21 05:45:18;;;;;;;24.33;12.57;;;;;;;;;;4972128;28;20030;-77
2021/08/21 05:47:45;;;;;;;41.35;13.77;;;;;;;;;;4972985;28;20046;-77
2021/08/21 05:50:11;;;;;;;33.97;12.85;;;;;;;;;;4988327;28;20038;-77
2021/08/21 05:52:37;;;;;;;26.15;13.57;;;;;;;;;;4992207;28;20084;-77
2021/08/21 05:55:02;;;;;;;32.50;14.30;;;;;;;;;;4981441;28;20404;-77
2021/08/21 05:57:28;;;;;;;31.38;13.20;;;;;;;;;;4972526;28;20085;-77
2021/08/21 05:59:54;;;;;;;30.42;12.43;;;;;;;;;;4972721;28;20038;-77
2021/08/21 06:02:19;;;;;;;28.30;12.18;;;;;;;;;;4974048;28;20027;-77
2021/08/21 06:04:45;;;;;;;26.35;10.80;;;;;;;;;;5004602;28;20060;-77
2021/08/21 06:07:10;;;;;;;36.25;11.93;;;;;;;;;;4973382;28;20066;-77
2021/08/21 06:09:36;;;;;;;29.58;18.48;;;;;;;;;;4972728;28;20065;-77
2021/08/21 06:12:01;;;;;;;27.60;12.52;;;;;;;;;;4972757;28;20030;-77
2021/08/21 06:14:27;;;;;;;24.77;10.40;;;;;;;;;;4972641;28;20508;-77
2021/08/21 06:16:52;;;;;;;25.73;10.32;;;;;;;;;;4972062;28;20038;-77
2021/08/21 06:19:18;;;;;;;23.55;10.68;;;;;;;;;;4972004;28;20565;-77
2021/08/21 06:21:44;;;;;;;22.63;8.63;;;;;;;;;;4984026;28;20118;-78
2021/08/21 06:24:10;;;;;;;17.85;8.02;;;;;;;;;;4974394;28;20062;-77
2021/08/21 06:26:36;;;;;;;12.75;6.30;;;;;;;;;;4975044;28;20398;-78
2021/08/21 06:29:01;;;;;;;14.48;7.70;;;;;;;;;;4990673;28;20037;-78
2021/08/21 06:31:27;;;;;;;14.43;7.60;;;;;;;;;;4979083;28;20058;-77
2021/08/21 06:33:52;;;;;;;18.08;7.47;;;;;;;;;;4975422;28;20362;-77
2021/08/21 06:36:18;;;;;;;17.13;7.47;;;;;;;;;;4975619;28;20046;-75
2021/08/21 06:38:43;;;;;;;18.90;7.22;;;;;;;;;;4991189;28;20063;-77
2021/08/21 06:41:09;;;;;;;17.98;7.10;;;;;;;;;;4981728;28;20060;-77
2021/08/21 06:43:34;;;;;;;27.23;7.63;;;;;;;;;;4975841;28;20030;-78
2021/08/21 06:46:00;;;;;;;20.08;7.80;;;;;;;;;;4974677;28;20030;-75
2021/08/21 06:48:26;;;;;;;17.92;7.35;;;;;;;;;;4986033;28;20026;-75
2021/08/21 06:50:52;;;;;;;25.13;9.43;;;;;;;;;;4978970;28;20041;-76
2021/08/21 06:53:18;;;;;;;20.60;9.98;;;;;;;;;;4973210;28;20468;-77
2021/08/21 06:55:43;;;;;;;25.58;9.55;;;;;;;;;;4974456;28;20038;-77
2021/08/21 06:58:09;;;;;;;28.92;10.13;;;;;;;;;;4977657;28;20034;-75
2021/08/21 07:00:35;;;;;;;32.00;10.15;;;;;;;;;;4990034;28;20054;-75
2021/08/21 07:03:01;;;;;;;26.10;9.35;;;;;;;;;;4974833;28;20069;-76
2021/08/21 07:05:27;;;;;;;13.68;6.50;;;;;;;;;;4974647;28;20054;-76
2021/08/21 07:07:53;;;;;;;13.55;6.53;;;;;;;;;;4975088;28;20505;-76
2021/08/21 07:10:18;;;;;;;13.25;7.00;;;;;;;;;;4975385;28;20035;-75
2021/08/21 07:12:44;;;;;;;24.67;8.05;;;;;;;;;;4974457;28;20114;-76
2021/08/21 07:15:10;;;;;;;11.98;6.43;;;;;;;;;;4974760;28;20445;-76
2021/08/21 07:17:35;;;;;;;17.52;6.38;;;;;;;;;;4974795;28;20125;-75
2021/08/21 07:20:01;;;;;;;17.75;7.30;;;;;;;;;;4974423;28;20093;-76
2021/08/21 07:22:26;;;;;;;17.88;6.60;;;;;;;;;;4974760;28;20038;-77
2021/08/21 07:24:52;;;;;;;14.82;6.85;;;;;;;;;;4974651;28;20184;-76
2021/08/21 07:27:17;;;;;;;13.18;6.80;;;;;;;;;;4974390;28;20035;-77
2021/08/21 07:29:43;;;;;;;12.48;6.78;;;;;;;;;;4974551;28;20034;-76
2021/08/21 07:32:09;;;;;;;16.83;7.50;;;;;;;;;;4974468;28;20089;-77
2021/08/21 07:34:36;;;;;;;13.73;6.82;;;;;;;;;;4973736;28;20031;-77
2021/08/21 07:37:02;;;;;;;20.08;7.28;;;;;;;;;;4974503;28;20084;-77
2021/08/21 07:39:28;;;;;;;8.93;6.00;;;;;;;;;;4974530;28;20428;-77
2021/08/21 07:41:53;;;;;;;11.82;6.10;;;;;;;;;;4983402;28;20058;-77
2021/08/21 07:44:19;;;;;;;12.68;6.57;;;;;;;;;;4980754;28;20027;-76
2021/08/21 07:46:45;;;;;;;13.60;6.32;;;;;;;;;;4974137;28;20069;-77
2021/08/21 07:49:10;;;;;;;36.50;8.50;;;;;;;;;;4974600;28;20042;-77
2021/08/21 07:51:37;;;;;;;26.98;7.45;;;;;;;;;;4973552;28;20378;-78
2021/08/21 07:54:02;;;;;;;17.77;6.32;;;;;;;;;;4973472;28;20039;-77
2021/08/21 07:56:28;;;;;;;14.88;6.10;;;;;;;;;;4972155;28;20105;-77
2021/08/21 07:58:54;;;;;;;13.95;5.93;;;;;;;;;;4973991;28;20035;-76
2021/08/21 08:01:19;;;;;;;12.27;6.82;;;;;;;;;;5005151;28;20478;-76
2021/08/21 08:03:45;;;;;;;15.73;7.20;;;;;;;;;;4972389;28;20054;-76
2021/08/21 08:06:10;;;;;;;21.52;7.25;;;;;;;;;;4972574;28;20066;-77
2021/08/21 08:08:36;;;;;;;14.77;7.38;;;;;;;;;;4972677;28;20254;-77
2021/08/21 08:11:02;;;;;;;13.48;7.60;;;;;;;;;;4971375;28;20070;-77
2021/08/21 08:13:27;;;;;;;12.18;5.88;;;;;;;;;;4972497;28;20584;-77
2021/08/21 08:15:53;;;;;;;18.05;6.43;;;;;;;;;;4972383;28;20030;-77
2021/08/21 08:18:18;;;;;;;12.75;6.50;;;;;;;;;;4971680;28;20030;-77
2021/08/21 08:20:44;;;;;;;13.52;6.82;;;;;;;;;;4971699;28;20043;-77
2021/08/21 08:23:11;;;;;;;16.13;6.55;;;;;;;;;;4971766;28;20133;-77
2021/08/21 08:25:37;;;;;;;9.65;6.40;;;;;;;;;;4971629;28;20642;-76
2021/08/21 08:28:03;;;;;;;19.55;6.90;;;;;;;;;;4972547;28;20131;-76
2021/08/21 08:30:28;;;;;;;18.20;7.40;;;;;;;;;;4972598;28;20042;-77
2021/08/21 08:32:54;;;;;;;12.15;6.40;;;;;;;;;;4972611;28;20453;-77
2021/08/21 08:35:19;;;;;;;12.13;6.35;;;;;;;;;;4990540;28;20040;-77
2021/08/21 08:37:45;;;;;;;14.35;5.88;;;;;;;;;;4987964;28;20031;-76
2021/08/21 08:40:11;;;;;;;16.45;7.05;;;;;;;;;;4973438;28;20465;-77
2021/08/21 08:42:40;;;;;;;15.32;7.30;;;;;;;;;;4972548;28;20037;-77
2021/08/21 08:45:06;;;;;;;12.77;6.20;;;;;;;;;;4972597;28;20057;-77
2021/08/21 08:47:33;;;;;;;11.15;5.72;;;;;;;;;;4973503;28;20465;-77
2021/08/21 08:50:04;;;;;;;9.30;5.35;;;;;;;;;;4972609;28;20031;-76
2021/08/21 08:52:30;;;;;;;13.52;5.50;;;;;;;;;;4987691;28;20117;-77
2021/08/21 08:54:55;;;;;;;11.98;5.47;;;;;;;;;;4972074;28;20466;-77
2021/08/21 08:57:39;;;;;;;14.32;5.20;;;;;;;;;;4972692;28;20117;-76
2021/08/21 09:00:09;;;;;;;10.40;5.80;;;;;;;;;;5003507;28;20445;-77
2021/08/21 09:02:36;;;;;;;8.93;5.22;;;;;;;;;;4972993;28;20023;-77
2021/08/21 09:05:04;;;;;;;8.95;5.05;;;;;;;;;;4974305;28;20038;-77
2021/08/21 09:07:38;;;;;;;13.20;5.40;;;;;;;;;;4991181;28;20057;-77
2021/08/21 09:10:11;;;;;;;11.30;5.32;;;;;;;;;;4981221;28;20030;-76
2021/08/21 09:12:40;;;;;;;12.20;6.20;;;;;;;;;;4972944;28;20393;-76
2021/08/21 09:15:20;;;;;;;13.52;5.78;;;;;;;;;;4972803;28;20022;-77
2021/08/21 09:17:58;;;;;;;17.55;6.55;;;;;;;;;;4973036;28;20034;-76
2021/08/21 09:20:24;;;;;;;17.95;6.28;;;;;;;;;;4973446;28;20039;-76
2021/08/21 09:22:49;;;;;;;12.75;6.20;;;;;;;;;;4972762;28;20085;-76
2021/08/21 09:25:27;;;;;;;10.13;5.93;;;;;;;;;;4970946;28;20488;-77
2021/08/21 09:27:54;;;;;;;21.35;6.28;;;;;;;;;;4971386;28;20162;-77
2021/08/21 09:30:19;;;;;;;13.35;6.38;;;;;;;;;;4971581;28;20058;-76
2021/08/21 09:32:46;;;;;;;16.45;6.15;;;;;;;;;;4974827;28;20062;-75
2021/08/21 09:35:12;;;;;;;14.70;6.20;;;;;;;;;;4971492;28;20027;-76
2021/08/21 09:38:04;;;;;;;13.73;6.53;;;;;;;;;;4971572;28;20432;-76
2021/08/21 09:40:30;;;;;;;13.40;5.97;;;;;;;;;;4969774;28;20149;-77
2021/08/21 09:42:56;;;;;;;11.27;5.60;;;;;;;;;;4971533;28;20023;-77
2021/08/21 09:45:22;;;;;;;15.02;5.95;;;;;;;;;;4971370;28;20027;-77
2021/08/21 09:47:48;;;;;;;12.77;5.72;;;;;;;;;;4971202;28;20027;-77
2021/08/21 09:50:18;;;;;;;12.57;5.80;;;;;;;;;;4970010;28;20061;-77
2021/08/21 09:52:45;;;;;;;15.23;6.80;;;;;;;;;;4971249;28;20030;-77
2021/08/21 09:55:15;;;;;;;13.13;6.47;;;;;;;;;;4971507;28;20347;-76
2021/08/21 09:57:41;;;;;;;12.60;6.72;;;;;;;;;;4972254;28;20015;-76
2021/08/21 10:00:07;;;;;;;17.45;5.88;;;;;;;;;;5006215;28;20027;-76
2021/08/21 10:02:33;;;;;;;14.85;6.47;;;;;;;;;;4974374;28;20037;-76
2021/08/21 10:04:59;;;;;;;12.63;5.70;;;;;;;;;;4974654;28;20037;-76
2021/08/21 10:07:35;;;;;;;15.75;6.68;;;;;;;;;;4989398;28;20051;-77
2021/08/21 10:10:03;;;;;;;15.60;6.78;;;;;;;;;;4974867;28;20031;-76
2021/08/21 10:12:29;;;;;;;16.10;7.53;;;;;;;;;;4976322;28;20242;-76
2021/08/21 10:14:55;;;;;;;15.60;7.03;;;;;;;;;;4985410;28;20543;-75
2021/08/21 10:17:21;;;;;;;14.65;6.25;;;;;;;;;;4975645;28;20169;-76
2021/08/21 10:19:48;;;;;;;14.05;6.72;;;;;;;;;;4978659;28;20125;-76
2021/08/21 10:22:14;;;;;;;14.98;7.07;;;;;;;;;;4977791;28;20030;-76
2021/08/21 10:24:43;;;;;;;12.57;6.53;;;;;;;;;;4995502;28;20485;-76
2021/08/21 10:27:29;;;;;;;12.95;6.78;;;;;;;;;;4995213;28;20030;-76
2021/08/21 10:30:09;;;;;;;16.98;6.10;;;;;;;;;;4988421;28;20374;-77
2021/08/21 10:32:45;;;;;;;15.07;5.97;;;;;;;;;;4977283;28;20056;-76
2021/08/21 10:35:12;;;;;;;16.52;6.80;;;;;;;;;;4995163;28;20038;-76
2021/08/21 10:37:37;;;;;;;12.30;6.70;;;;;;;;;;4989676;28;20121;-76
2021/08/21 10:40:21;;;;;;;14.10;6.30;;;;;;;;;;4975986;28;20149;-76
2021/08/21 10:42:53;;;;;;;16.45;7.18;;;;;;;;;;4974514;28;20167;-75
2021/08/21 10:45:37;;;;;;;15.15;7.38;;;;;;;;;;4989128;28;20034;-76
2021/08/21 10:48:03;;;;;;;15.02;8.05;;;;;;;;;;4986613;28;20081;-75
2021/08/21 10:50:30;;;;;;;20.60;7.80;;;;;;;;;;4994012;28;20481;-76
2021/08/21 10:53:03;;;;;;;17.90;7.43;;;;;;;;;;4993104;28;20034;-75
2021/08/21 10:55:28;;;;;;;16.95;7.38;;;;;;;;;;4975667;28;20062;-76
2021/08/21 10:58:13;;;;;;;20.35;7.65;;;;;;;;;;5006547;28;20061;-76
2021/08/21 11:00:39;;;;;;;18.17;8.93;;;;;;;;;;4990018;28;20432;-77
2021/08/21 11:03:05;;;;;;;21.38;8.38;;;;;;;;;;4975533;28;20031;-76
2021/08/21 11:05:49;;;;;;;17.25;8.73;;;;;;;;;;4978432;28;20126;-77
2021/08/21 11:08:15;;;;;;;14.30;7.70;;;;;;;;;;5005903;28;20518;-76
2021/08/21 11:10:40;;;;;;;13.43;7.97;;;;;;;;;;4975030;28;20026;-76
2021/08/21 11:13:09;;;;;;;13.50;7.85;;;;;;;;;;4975483;28;20381;-77
2021/08/21 11:15:34;;;;;;;16.30;8.77;;;;;;;;;;4974780;28;20026;-77
2021/08/21 11:18:00;;;;;;;14.95;8.27;;;;;;;;;;4974639;28;20076;-77
2021/08/21 11:20:26;;;;;;;18.77;8.98;;;;;;;;;;4975039;28;20049;-77
2021/08/21 11:23:07;;;;;;;15.13;8.80;;;;;;;;;;4974574;28;20027;-77
2021/08/21 11:25:33;;;;;;;14.30;8.52;;;;;;;;;;4974570;28;20106;-77
2021/08/21 11:28:23;;;;;;;13.82;8.30;;;;;;;;;;4974926;28;20067;-77
2021/08/21 11:31:07;;;;;;;15.70;8.95;;;;;;;;;;4973870;28;20527;-76
2021/08/21 11:33:33;;;;;;;13.82;8.68;;;;;;;;;;4965776;28;20035;-76
2021/08/21 11:35:59;;;;;;;17.00;9.52;;;;;;;;;;4978236;28;20038;-76
2021/08/21 11:38:25;;;;;;;12.95;8.32;;;;;;;;;;4973894;28;20034;-76
2021/08/21 11:40:51;;;;;;;12.10;8.48;;;;;;;;;;4974499;28;20073;-75
2021/08/21 11:43:21;;;;;;;18.08;8.88;;;;;;;;;;4974668;28;20035;-76
2021/08/21 11:45:46;;;;;;;13.35;9.10;;;;;;;;;;4974232;28;20540;-76
2021/08/21 11:48:12;;;;;;;15.10;9.10;;;;;;;;;;4974143;28;20034;-76
2021/08/21 11:50:41;;;;;;;11.90;9.10;;;;;;;;;;4974347;28;20474;-76
2021/08/21 11:53:08;;;;;;;17.45;8.68;;;;;;;;;;4974557;28;20037;-76
2021/08/21 11:55:35;;;;;;;17.10;8.68;;;;;;;;;;4988919;28;20493;-75
2021/08/21 11:58:00;;;;;;;14.27;9.05;;;;;;;;;;4973936;28;20041;-77
2021/08/21 12:00:27;;;;;;;13.88;8.63;;;;;;;;;;4973920;28;20038;-77
2021/08/21 12:02:56;;;;;;;15.43;9.20;;;;;;;;;;4973941;28;20038;-77
2021/08/21 12:05:40;;;;;;;16.10;9.35;;;;;;;;;;4973289;28;20031;-77
2021/08/21 12:08:20;;;;;;;20.20;9.95;;;;;;;;;;4973672;28;20047;-77
2021/08/21 12:10:54;;;;;;;15.82;9.15;;;;;;;;;;4973757;28;20386;-76
2021/08/21 12:13:24;;;;;;;13.38;8.63;;;;;;;;;;4973777;28;20517;-76
2021/08/21 12:15:50;;;;;;;12.70;8.90;;;;;;;;;;4973859;28;20119;-76
2021/08/21 12:18:17;;;;;;;14.35;10.07;;;;;;;;;;4973864;28;20031;-76
2021/08/21 12:20:42;;;;;;;14.13;8.45;;;;;;;;;;4973012;28;20039;-77
2021/08/21 12:23:11;;;;;;;14.63;8.77;;;;;;;;;;4973545;28;20063;-77
2021/08/21 12:25:43;;;;;;;15.52;9.00;;;;;;;;;;4973334;28;20026;-76
2021/08/21 12:28:13;;;;;;;13.88;9.38;;;;;;;;;;4973364;28;20433;-76
2021/08/21 12:30:38;;;;;;;15.68;9.80;;;;;;;;;;4973141;28;20026;-75
2021/08/21 12:33:11;;;;;;;17.02;10.15;;;;;;;;;;4973900;28;20080;-76
2021/08/21 12:35:36;;;;;;;15.55;8.75;;;;;;;;;;5004344;28;20520;-75
2021/08/21 12:38:05;;;;;;;15.50;9.55;;;;;;;;;;4973480;28;20038;-76
2021/08/21 12:40:31;;;;;;;12.90;8.82;;;;;;;;;;4973140;28;20506;-76
2021/08/21 12:43:04;;;;;;;15.55;8.57;;;;;;;;;;4971839;28;20034;-75
2021/08/21 12:45:30;;;;;;;13.85;8.73;;;;;;;;;;4973349;28;20035;-78
2021/08/21 12:47:55;;;;;;;12.25;8.80;;;;;;;;;;4973273;28;20031;-75
2021/08/21 12:50:21;;;;;;;14.07;8.88;;;;;;;;;;4973460;28;20031;-76
2021/08/21 12:52:59;;;;;;;19.88;9.95;;;;;;;;;;4972716;28;20023;-76
2021/08/21 12:55:25;;;;;;;14.95;9.48;;;;;;;;;;4973198;28;20034;-77
2021/08/21 12:58:01;;;;;;;14.05;8.27;;;;;;;;;;4972958;28;20030;-76
2021/08/21 13:00:27;;;;;;;11.95;9.05;;;;;;;;;;4973365;28;20136;-77
2021/08/21 13:02:55;;;;;;;14.10;8.38;;;;;;;;;;4972929;28;20513;-75
2021/08/21 13:05:26;;;;;;;13.32;8.55;;;;;;;;;;4953369;28;20035;-76
2021/08/21 13:07:53;;;;;;;12.82;8.45;;;;;;;;;;4954077;28;20118;-77
2021/08/21 13:10:22;;;;;;;14.57;9.75;;;;;;;;;;4970825;28;20070;-77
2021/08/21 13:12:48;;;;;;;16.45;9.38;;;;;;;;;;4971812;28;20030;-77
2021/08/21 13:15:15;;;;;;;12.27;7.90;;;;;;;;;;4972600;28;20030;-77
2021/08/21 13:17:42;;;;;;;16.50;9.00;;;;;;;;;;4972415;28;20027;-77
2021/08/21 13:20:10;;;;;;;13.40;8.20;;;;;;;;;;4982952;28;20085;-77
2021/08/21 13:22:36;;;;;;;14.75;8.43;;;;;;;;;;4992393;28;20030;-75
2021/08/21 13:25:02;;;;;;;13.15;8.13;;;;;;;;;;4972145;28;20429;-76
2021/08/21 13:27:27;;;;;;;18.13;8.90;;;;;;;;;;4973354;28;20117;-77
2021/08/21 13:29:53;;;;;;;18.05;8.85;;;;;;;;;;4971569;28;20039;-76
2021/08/21 13:32:19;;;;;;;16.63;8.32;;;;;;;;;;4986737;28;20056;-77
2021/08/21 13:34:44;;;;;;;18.52;8.48;;;;;;;;;;4982068;28;20042;-75
2021/08/21 13:37:10;;;;;;;13.32;8.50;;;;;;;;;;4976522;28;20038;-76
2021/08/21 13:39:39;;;;;;;21.45;8.25;;;;;;;;;;4976795;28;20046;-74
2021/08/21 13:42:06;;;;;;;12.98;7.28;;;;;;;;;;4977556;28;20035;-74
2021/08/21 13:44:33;;;;;;;14.00;7.88;;;;;;;;;;4976399;28;20064;-74
2021/08/21 13:46:59;;;;;;;14.50;7.80;;;;;;;;;;4976179;28;20031;-75
2021/08/21 13:49:25;;;;;;;15.85;8.13;;;;;;;;;;4977344;28;20404;-75
2021/08/21 13:51:50;;;;;;;15.15;8.30;;;;;;;;;;4975002;28;20037;-76
2021/08/21 13:54:16;;;;;;;16.00;7.50;;;;;;;;;;4975558;28;20027;-75
2021/08/21 13:56:42;;;;;;;13.35;7.22;;;;;;;;;;4992458;28;20450;-76
2021/08/21 13:59:10;;;;;;;15.82;7.70;;;;;;;;;;4975958;28;20101;-75
2021/08/21 14:01:37;;;;;;;14.48;8.07;;;;;;;;;;4976092;28;20042;-77
2021/08/21 14:04:03;;;;;;;13.32;7.00;;;;;;;;;;4975941;28;20033;-76
2021/08/21 14:06:29;;;;;;;18.25;8.18;;;;;;;;;;4975492;28;20062;-76
2021/08/21 14:08:55;;;;;;;11.73;6.80;;;;;;;;;;4976347;28;20121;-76
2021/08/21 14:11:21;;;;;;;11.52;7.25;;;;;;;;;;4979541;28;20110;-76
2021/08/21 14:13:47;;;;;;;22.90;9.02;;;;;;;;;;4974868;28;20402;-77
2021/08/21 14:16:13;;;;;;;12.50;7.47;;;;;;;;;;5006731;28;20034;-75
2021/08/21 14:18:38;;;;;;;20.50;7.45;;;;;;;;;;4976255;28;20037;-76
2021/08/21 14:21:05;;;;;;;14.77;8.18;;;;;;;;;;4985033;28;20089;-76
2021/08/21 14:23:31;;;;;;;13.30;7.95;;;;;;;;;;5006583;28;20122;-77
2021/08/21 14:25:56;;;;;;;20.83;9.63;;;;;;;;;;4976323;28;20058;-76